createdAt,value
2023-05-12T00:01:38.709Z,89.08
2023-05-12T00:04:06.719Z,89.83
2023-05-12T00:06:33.932Z,90.71
2023-05-12T00:09:01.120Z,90.67
2023-05-12T00:11:28.024Z,90.57
2023-05-12T00:13:55.613Z,91.58
2023-05-12T00:16:22.531Z,92.00
2023-05-12T00:18:49.731Z,91.79
2023-05-12T00:21:16.606Z,92.66
2023-05-12T00:23:43.796Z,91.84
2023-05-12T00:26:10.740Z,91.23
2023-05-12T00:28:37.948Z,91.37
2023-05-12T00:31:05.841Z,91.43
2023-05-12T00:33:33.065Z,91.31
2023-05-12T00:36:04.206Z,92.48
2023-05-12T00:38:31.358Z,93.07
2023-05-12T00:40:58.158Z,93.95
2023-05-12T00:43:25.312Z,93.66
2023-05-12T00:45:52.922Z,93.01
2023-05-12T00:48:20.258Z,93.38
2023-05-12T00:50:47.131Z,93.10
2023-05-12T00:53:14.633Z,93.55
2023-05-12T00:55:42.181Z,94.81
2023-05-12T00:58:09.455Z,96.67
2023-05-12T01:00:36.326Z,96.30
2023-05-12T01:03:04.256Z,97.04
2023-05-12T01:05:39.432Z,97.76
2023-05-12T01:08:06.662Z,97.75
2023-05-12T01:10:33.721Z,98.01
2023-05-12T01:13:00.914Z,98.18
2023-05-12T01:15:29.953Z,98.87
2023-05-12T01:17:59.607Z,98.06
2023-05-12T01:20:28.146Z,96.81
2023-05-12T01:22:56.501Z,94.89
2023-05-12T01:25:24.646Z,93.87
2023-05-12T01:27:52.885Z,92.32
2023-05-12T01:30:21.631Z,91.10
2023-05-12T01:32:49.139Z,90.15
2023-05-12T01:35:16.091Z,89.27
2023-05-12T01:37:43.261Z,88.52
2023-05-12T01:40:10.380Z,87.24
2023-05-12T01:42:39.796Z,87.08
2023-05-12T01:45:07.616Z,86.98
2023-05-12T01:47:34.968Z,86.70
2023-05-12T01:50:01.929Z,86.47
2023-05-12T01:52:29.113Z,86.18
2023-05-12T01:54:56.070Z,85.79
2023-05-12T01:57:23.307Z,85.60
2023-05-12T01:59:50.493Z,85.12
2023-05-12T02:02:17.655Z,84.60
2023-05-12T02:04:44.562Z,83.27
2023-05-12T02:07:11.789Z,82.52
2023-05-12T02:09:38.621Z,82.11
2023-05-12T02:12:06.070Z,81.92
2023-05-12T02:14:32.926Z,81.74
2023-05-12T02:17:00.138Z,81.67
2023-05-12T02:19:27.011Z,81.85
2023-05-12T02:21:54.107Z,81.69
2023-05-12T02:24:21.442Z,82.01
2023-05-12T02:26:48.591Z,82.37
2023-05-12T02:29:15.474Z,82.58
2023-05-12T02:31:42.696Z,83.18
2023-05-12T02:34:09.637Z,83.07
2023-05-12T02:36:36.765Z,83.21
2023-05-12T02:39:03.955Z,83.24
2023-05-12T02:41:31.367Z,82.99
2023-05-12T02:43:58.595Z,82.57
2023-05-12T02:46:26.087Z,82.44
2023-05-12T02:48:53.160Z,82.48
2023-05-12T02:51:20.382Z,83.04
2023-05-12T02:53:47.216Z,82.61
2023-05-12T02:56:14.411Z,82.33
2023-05-12T02:58:41.973Z,82.80
2023-05-12T03:01:11.151Z,82.98
2023-05-12T03:03:39.003Z,83.30
2023-05-12T03:06:07.030Z,83.87
2023-05-12T03:08:33.998Z,84.23
2023-05-12T03:11:01.185Z,84.31
2023-05-12T03:13:28.062Z,85.74
2023-05-12T03:15:55.844Z,86.28
2023-05-12T03:18:22.933Z,87.20
2023-05-12T03:20:50.214Z,87.46
2023-05-12T03:23:17.156Z,87.97
2023-05-12T03:25:44.295Z,88.29
2023-05-12T03:28:11.620Z,88.52
2023-05-12T03:30:38.804Z,88.50
2023-05-12T03:33:05.682Z,88.40
2023-05-12T03:35:32.877Z,88.24
2023-05-12T03:37:59.726Z,88.02
2023-05-12T03:40:26.861Z,87.93
2023-05-12T03:42:53.697Z,87.72
2023-05-12T03:45:21.408Z,87.45
2023-05-12T03:47:48.361Z,87.31
2023-05-12T03:50:15.680Z,87.29
2023-05-12T03:52:42.564Z,87.33
2023-05-12T03:55:10.677Z,86.99
2023-05-12T03:57:38.253Z,86.17
2023-05-12T04:00:06.142Z,86.28
2023-05-12T04:02:33.169Z,86.51
2023-05-12T04:05:00.701Z,87.09
2023-05-12T04:07:27.891Z,85.78
2023-05-12T04:09:55.047Z,85.42
2023-05-12T04:12:22.297Z,84.10
2023-05-12T04:14:49.854Z,82.82
2023-05-12T04:17:19.136Z,81.76
2023-05-12T04:19:46.807Z,80.82
2023-05-12T04:22:13.702Z,80.57
2023-05-12T04:24:40.853Z,80.40
2023-05-12T04:27:07.677Z,80.24
2023-05-12T04:29:34.932Z,82.14
2023-05-12T04:32:01.839Z,80.05
2023-05-12T04:34:28.969Z,81.14
2023-05-12T04:36:55.845Z,77.21
2023-05-12T04:39:23.072Z,75.21
2023-05-12T04:41:49.963Z,74.87
2023-05-12T04:44:17.106Z,71.30
2023-05-12T04:46:44.006Z,70.22
2023-05-12T04:49:11.512Z,72.59
2023-05-12T04:51:43.049Z,69.04
2023-05-12T04:54:11.140Z,69.19
2023-05-12T04:56:37.993Z,70.52
2023-05-12T04:59:05.357Z,65.72
2023-05-12T05:01:32.406Z,62.85
2023-05-12T05:03:59.647Z,63.03
2023-05-12T05:06:26.610Z,61.19
2023-05-12T05:08:55.949Z,59.38
2023-05-12T05:11:23.588Z,59.02
2023-05-12T05:13:50.886Z,57.20
2023-05-12T05:16:17.909Z,58.18
2023-05-12T05:18:48.049Z,56.94
2023-05-12T05:21:15.428Z,56.96
2023-05-12T05:23:42.876Z,58.74
2023-05-12T05:26:09.946Z,59.73
2023-05-12T05:28:39.893Z,59.87
2023-05-12T05:31:07.652Z,58.60
2023-05-12T05:33:34.865Z,55.66
2023-05-12T05:36:01.909Z,55.58
2023-05-12T05:38:29.097Z,56.59
2023-05-12T05:40:56.093Z,55.54
2023-05-12T05:43:23.448Z,53.22
2023-05-12T05:45:51.510Z,53.69
2023-05-12T05:48:18.815Z,51.95
2023-05-12T05:50:45.663Z,50.70
2023-05-12T05:53:12.828Z,48.68
2023-05-12T05:55:39.699Z,47.71
2023-05-12T05:58:07.090Z,47.87
2023-05-12T06:00:34.034Z,46.68
2023-05-12T06:03:01.649Z,45.96
2023-05-12T06:05:28.985Z,45.55
2023-05-12T06:07:56.146Z,45.25
2023-05-12T06:10:23.067Z,43.83
2023-05-12T06:12:50.598Z,43.90
2023-05-12T06:15:18.293Z,44.97
2023-05-12T06:17:45.831Z,44.66
2023-05-12T06:20:13.549Z,45.93
2023-05-12T06:22:42.442Z,43.38
2023-05-12T06:25:09.552Z,44.84
2023-05-12T06:27:36.828Z,44.30
2023-05-12T06:30:04.461Z,44.98
2023-05-12T06:32:31.762Z,42.84
2023-05-12T06:34:59.054Z,41.72
2023-05-12T06:37:26.151Z,42.37
2023-05-12T06:39:53.105Z,41.91
2023-05-12T06:42:20.307Z,42.57
2023-05-12T06:44:47.256Z,42.33
2023-05-12T06:47:14.421Z,43.68
2023-05-12T06:49:41.269Z,43.35
2023-05-12T06:52:08.427Z,43.12
2023-05-12T06:54:35.255Z,43.47
2023-05-12T06:57:02.412Z,42.96
2023-05-12T06:59:29.323Z,43.51
2023-05-12T07:01:56.548Z,43.73
2023-05-12T07:04:24.512Z,42.84
2023-05-12T07:06:52.659Z,44.20
2023-05-12T07:09:19.884Z,41.91
2023-05-12T07:11:47.322Z,40.75
2023-05-12T07:14:14.219Z,42.24
2023-05-12T07:16:41.399Z,41.60
2023-05-12T07:19:09.693Z,43.71
2023-05-12T07:21:37.406Z,43.39
2023-05-12T07:24:06.225Z,40.40
2023-05-12T07:26:33.522Z,38.75
2023-05-12T07:29:01.082Z,40.33
2023-05-12T07:31:28.989Z,40.71
2023-05-12T07:33:56.106Z,41.74
2023-05-12T07:36:23.565Z,38.68
2023-05-12T07:38:50.547Z,39.22
2023-05-12T07:41:18.103Z,39.63
2023-05-12T07:43:45.649Z,39.16
2023-05-12T07:46:13.111Z,39.30
2023-05-12T07:48:40.497Z,39.72
2023-05-12T07:51:08.252Z,38.73
2023-05-12T07:53:35.737Z,38.83
2023-05-12T07:56:02.877Z,39.12
2023-05-12T07:58:29.922Z,37.87
2023-05-12T08:01:00.254Z,38.43
2023-05-12T08:03:27.352Z,39.34
2023-05-12T08:05:54.685Z,36.12
2023-05-12T08:08:21.767Z,36.07
2023-05-12T08:10:48.875Z,35.50
2023-05-12T08:13:15.803Z,36.83
2023-05-12T08:15:43.103Z,34.92
2023-05-12T08:18:10.149Z,35.65
2023-05-12T08:20:37.481Z,34.59
2023-05-12T08:23:04.337Z,34.69
2023-05-12T08:25:31.645Z,33.79
2023-05-12T08:27:59.872Z,32.79
2023-05-12T08:30:27.449Z,32.81
2023-05-12T08:32:57.784Z,33.70
2023-05-12T08:35:27.108Z,34.45
2023-05-12T08:37:54.248Z,33.28
2023-05-12T08:40:23.341Z,33.95
2023-05-12T08:43:01.822Z,33.23
2023-05-12T08:45:30.156Z,32.83
2023-05-12T08:47:58.740Z,32.28
2023-05-12T08:50:27.147Z,31.21
2023-05-12T08:52:54.576Z,31.48
2023-05-12T08:55:24.992Z,31.03
2023-05-12T08:57:54.733Z,30.57
2023-05-12T09:00:24.457Z,28.44
2023-05-12T09:02:54.657Z,26.57
2023-05-12T09:05:23.288Z,28.80
2023-05-12T09:07:53.900Z,28.77
2023-05-12T09:10:34.175Z,31.55
2023-05-12T09:13:23.921Z,30.37
2023-05-12T09:15:54.039Z,29.59
2023-05-12T09:18:21.112Z,30.34
2023-05-12T09:20:48.599Z,31.00
2023-05-12T09:23:24.863Z,31.84
2023-05-12T09:26:01.683Z,30.30
2023-05-12T09:28:38.618Z,31.98
2023-05-12T09:31:16.135Z,32.68
2023-05-12T09:33:43.167Z,33.01
2023-05-12T09:36:10.636Z,33.05
2023-05-12T09:38:38.315Z,34.32
2023-05-12T09:41:05.520Z,31.25
2023-05-12T09:43:32.618Z,31.19
2023-05-12T09:46:06.221Z,32.19
2023-05-12T09:48:33.417Z,32.22
2023-05-12T09:51:00.621Z,32.41
2023-05-12T09:53:27.495Z,32.01
2023-05-12T09:55:54.632Z,33.40
2023-05-12T09:58:22.769Z,33.61
2023-05-12T10:01:17.881Z,32.37
2023-05-12T10:03:42.281Z,31.41
2023-05-12T10:06:20.643Z,32.75
2023-05-12T10:08:50.957Z,32.24
2023-05-12T10:11:19.258Z,31.38
2023-05-12T10:13:47.300Z,32.29
2023-05-12T10:16:15.221Z,31.96
2023-05-12T10:18:46.907Z,32.67
2023-05-12T10:21:18.917Z,33.78
2023-05-12T10:23:46.850Z,34.88
2023-05-12T10:26:14.816Z,35.02
2023-05-12T10:28:43.026Z,34.60
2023-05-12T10:31:10.604Z,34.49
2023-05-12T10:33:37.625Z,32.33
2023-05-12T10:36:05.244Z,32.86
2023-05-12T10:38:37.248Z,32.07
2023-05-12T10:41:06.616Z,33.91
2023-05-12T10:43:48.889Z,33.88
2023-05-12T10:46:19.022Z,34.23
2023-05-12T10:49:12.547Z,33.56
2023-05-12T10:51:42.670Z,33.86
2023-05-12T10:54:11.454Z,33.99
2023-05-12T10:56:38.794Z,33.25
2023-05-12T10:59:14.763Z,31.80
2023-05-12T11:01:53.930Z,33.01
2023-05-12T11:04:22.518Z,34.20
2023-05-12T11:06:59.405Z,34.25
2023-05-12T11:09:27.327Z,35.07
2023-05-12T11:11:54.866Z,35.16
2023-05-12T11:14:22.274Z,34.06
2023-05-12T11:16:49.486Z,34.29
2023-05-12T11:19:18.804Z,34.54
2023-05-12T11:21:46.119Z,34.03
2023-05-12T11:24:13.273Z,35.03
2023-05-12T11:26:41.562Z,35.75
2023-05-12T11:29:08.577Z,35.27
2023-05-12T11:31:35.780Z,33.22
2023-05-12T11:34:12.624Z,34.31
2023-05-12T11:36:42.742Z,33.57
2023-05-12T11:39:21.026Z,34.31
2023-05-12T11:41:51.371Z,35.39
2023-05-12T11:44:22.185Z,35.29
2023-05-12T11:46:57.084Z,35.21
2023-05-12T11:49:24.389Z,35.32
2023-05-12T11:51:54.021Z,33.81
2023-05-12T11:54:21.400Z,33.43
2023-05-12T11:56:53.990Z,33.11
2023-05-12T11:59:31.178Z,33.11
2023-05-12T12:01:59.964Z,33.48
2023-05-12T12:04:36.354Z,33.40
2023-05-12T12:07:08.146Z,34.59
2023-05-12T12:09:37.271Z,33.84
2023-05-12T12:12:06.398Z,33.93
2023-05-12T12:14:35.026Z,31.96
2023-05-12T12:17:02.761Z,33.87
2023-05-12T12:19:29.689Z,34.17
2023-05-12T12:21:57.934Z,33.11
2023-05-12T12:24:25.904Z,31.84
2023-05-12T12:26:53.104Z,32.46
2023-05-12T12:29:19.997Z,32.40
2023-05-12T12:31:47.256Z,31.96
2023-05-12T12:34:14.116Z,32.29
2023-05-12T12:36:41.352Z,33.56
2023-05-12T12:39:08.264Z,33.11
2023-05-12T12:41:35.576Z,34.06
2023-05-12T12:44:02.648Z,34.78
2023-05-12T12:46:29.831Z,34.44
2023-05-12T12:48:58.234Z,35.90
2023-05-12T12:51:35.349Z,35.80
2023-05-12T12:54:11.714Z,34.36
2023-05-12T12:56:39.433Z,35.13
2023-05-12T12:59:06.558Z,34.32
2023-05-12T13:01:34.079Z,34.13
2023-05-12T13:04:01.232Z,33.69
2023-05-12T13:06:29.512Z,33.20
2023-05-12T13:08:56.679Z,33.29
2023-05-12T13:11:23.868Z,32.81
2023-05-12T13:13:50.770Z,33.63
2023-05-12T13:16:18.532Z,31.92
2023-05-12T13:18:45.953Z,33.12
2023-05-12T13:21:13.252Z,32.93
2023-05-12T13:23:40.070Z,31.86
2023-05-12T13:26:07.172Z,32.14
2023-05-12T13:28:34.011Z,31.86
2023-05-12T13:31:01.206Z,32.20
2023-05-12T13:33:28.148Z,34.06
2023-05-12T13:35:55.349Z,33.83
2023-05-12T13:38:22.453Z,33.52
2023-05-12T13:40:49.663Z,34.62
2023-05-12T13:43:16.789Z,34.81
2023-05-12T13:45:43.998Z,34.90
2023-05-12T13:48:10.862Z,34.70
2023-05-12T13:50:38.134Z,33.38
2023-05-12T13:53:05.034Z,34.67
2023-05-12T13:55:34.302Z,33.67
2023-05-12T13:58:01.128Z,33.74
2023-05-12T14:00:29.943Z,33.76
2023-05-12T14:02:57.936Z,35.08
2023-05-12T14:05:25.404Z,35.46
2023-05-12T14:07:52.306Z,35.59
2023-05-12T14:10:19.463Z,35.32
2023-05-12T14:12:46.733Z,34.34
2023-05-12T14:15:28.911Z,33.50
2023-05-12T14:18:00.882Z,33.61
2023-05-12T14:20:28.032Z,33.44
2023-05-12T14:22:55.555Z,34.79
2023-05-12T14:25:23.977Z,35.25
2023-05-12T14:27:51.374Z,36.14
2023-05-12T14:30:18.825Z,35.42
2023-05-12T14:32:45.807Z,34.72
2023-05-12T14:35:13.359Z,35.12
2023-05-12T14:37:40.381Z,35.39
2023-05-12T14:40:08.655Z,35.50
2023-05-12T14:42:35.491Z,35.87
2023-05-12T14:45:02.949Z,34.32
2023-05-12T14:47:30.076Z,35.32
2023-05-12T14:49:57.196Z,35.33
2023-05-12T14:52:24.185Z,36.53
2023-05-12T14:54:51.349Z,36.10
2023-05-12T14:57:18.294Z,36.28
2023-05-12T14:59:45.456Z,35.69
2023-05-12T15:02:12.368Z,36.44
2023-05-12T15:04:39.637Z,35.06
2023-05-12T15:07:06.592Z,33.16
2023-05-12T15:09:33.712Z,34.03
2023-05-12T15:12:00.989Z,34.11
2023-05-12T15:14:28.539Z,33.53
2023-05-12T15:16:55.461Z,34.59
2023-05-12T15:19:22.586Z,34.27
2023-05-12T15:21:49.501Z,33.07
2023-05-12T15:24:16.731Z,32.80
2023-05-12T15:26:43.553Z,31.63
2023-05-12T15:29:10.730Z,32.27
2023-05-12T15:31:37.711Z,33.09
2023-05-12T15:34:04.968Z,33.49
2023-05-12T15:36:32.470Z,34.56
2023-05-12T15:38:59.711Z,34.72
2023-05-12T15:41:26.583Z,33.77
2023-05-12T15:43:53.705Z,32.62
2023-05-12T15:46:21.433Z,32.35
2023-05-12T15:48:49.214Z,32.61
2023-05-12T15:51:16.132Z,32.87
2023-05-12T15:53:43.557Z,33.39
2023-05-12T15:56:10.425Z,33.19
2023-05-12T15:58:37.620Z,33.11
2023-05-12T16:01:04.589Z,33.42
2023-05-12T16:03:32.073Z,33.64
2023-05-12T16:05:58.993Z,34.11
2023-05-12T16:08:26.963Z,33.86
2023-05-12T16:10:53.990Z,34.12
2023-05-12T16:13:21.099Z,34.47
2023-05-12T16:15:50.964Z,34.83
2023-05-12T16:18:18.413Z,34.32
2023-05-12T16:20:47.454Z,34.74
2023-05-12T16:23:14.583Z,34.32
2023-05-12T16:25:42.369Z,34.98
2023-05-12T16:28:09.545Z,34.88
2023-05-12T16:30:36.409Z,35.23
2023-05-12T16:33:03.660Z,35.36
2023-05-12T16:35:30.967Z,35.47
2023-05-12T16:37:58.089Z,35.87
2023-05-12T16:40:25.039Z,36.79
2023-05-12T16:42:52.808Z,36.76
2023-05-12T16:45:22.501Z,36.67
2023-05-12T16:47:51.354Z,36.37
2023-05-12T16:50:18.431Z,36.67
2023-05-12T16:52:45.724Z,36.84
2023-05-12T16:55:12.560Z,36.79
2023-05-12T16:57:41.457Z,37.27
2023-05-12T17:00:10.682Z,37.23
2023-05-12T17:02:38.970Z,37.28
2023-05-12T17:05:06.538Z,37.72
2023-05-12T17:07:35.351Z,37.57
2023-05-12T17:10:02.922Z,38.27
2023-05-12T17:12:30.095Z,38.44
2023-05-12T17:15:06.953Z,38.62
2023-05-12T17:17:36.128Z,38.52
2023-05-12T17:20:03.946Z,38.97
2023-05-12T17:22:32.172Z,39.22
2023-05-12T17:24:59.107Z,39.43
2023-05-12T17:27:26.288Z,39.23
2023-05-12T17:29:53.198Z,39.06
2023-05-12T17:32:20.385Z,39.48
2023-05-12T17:34:50.515Z,39.89
2023-05-12T17:37:18.168Z,39.90
2023-05-12T17:39:45.059Z,40.13
2023-05-12T17:42:12.309Z,40.39
2023-05-12T17:44:39.185Z,40.54
2023-05-12T17:47:06.803Z,40.64
2023-05-12T17:49:33.709Z,41.16
2023-05-12T17:52:00.836Z,41.10
2023-05-12T17:54:27.826Z,41.28
2023-05-12T17:56:54.967Z,41.50
2023-05-12T17:59:21.962Z,41.94
2023-05-12T18:01:49.222Z,41.92
2023-05-12T18:04:16.207Z,42.20
2023-05-12T18:06:43.912Z,42.45
2023-05-12T18:09:10.747Z,42.91
2023-05-12T18:11:37.877Z,43.36
2023-05-12T18:14:06.163Z,43.57
2023-05-12T18:16:33.562Z,43.76
2023-05-12T18:19:00.686Z,43.96
2023-05-12T18:21:28.042Z,44.40
2023-05-12T18:23:55.127Z,44.48
2023-05-12T18:26:22.634Z,44.98
2023-05-12T18:28:49.531Z,45.42
2023-05-12T18:31:19.544Z,45.77
2023-05-12T18:33:48.189Z,45.94
2023-05-12T18:36:16.603Z,46.31
2023-05-12T18:38:43.910Z,46.88
2023-05-12T18:41:11.886Z,47.24
2023-05-12T18:43:38.820Z,47.49
2023-05-12T18:46:06.245Z,47.82
2023-05-12T18:48:33.258Z,48.11
2023-05-12T18:51:01.396Z,48.08
2023-05-12T18:53:28.358Z,48.21
2023-05-12T18:55:55.554Z,48.45
2023-05-12T18:58:22.593Z,48.50
2023-05-12T19:00:49.760Z,48.90
2023-05-12T19:03:16.628Z,48.99
2023-05-12T19:05:46.310Z,48.87
2023-05-12T19:08:13.355Z,48.94
2023-05-12T19:10:40.837Z,49.36
2023-05-12T19:13:08.178Z,49.64
2023-05-12T19:15:36.007Z,50.18
2023-05-12T19:18:02.951Z,50.36
2023-05-12T19:20:31.091Z,50.61
2023-05-12T19:22:59.842Z,50.92
2023-05-12T19:25:27.044Z,51.26
2023-05-12T19:27:53.884Z,51.25
2023-05-12T19:30:20.967Z,51.64
2023-05-12T19:32:48.027Z,52.02
2023-05-12T19:35:15.780Z,52.29
2023-05-12T19:37:42.954Z,52.45
2023-05-12T19:40:10.563Z,53.24
2023-05-12T19:42:38.094Z,53.45
2023-05-12T19:45:05.861Z,53.99
2023-05-12T19:47:33.616Z,54.39
2023-05-12T19:50:01.123Z,54.92
2023-05-12T19:52:30.714Z,55.47
2023-05-12T19:54:58.116Z,56.24
2023-05-12T19:57:24.957Z,57.00
2023-05-12T19:59:52.124Z,57.32
2023-05-12T20:02:19.017Z,58.03
2023-05-12T20:04:46.432Z,58.99
2023-05-12T20:07:13.336Z,59.22
2023-05-12T20:09:40.623Z,59.77
2023-05-12T20:12:08.101Z,60.57
2023-05-12T20:14:36.214Z,61.37
2023-05-12T20:17:05.849Z,61.42
2023-05-12T20:19:33.854Z,61.42
2023-05-12T20:22:01.067Z,61.65
2023-05-12T20:24:28.363Z,61.75
2023-05-12T20:26:55.381Z,61.95
2023-05-12T20:29:22.901Z,62.06
2023-05-12T20:31:51.109Z,62.17
2023-05-12T20:34:19.349Z,62.07
2023-05-12T20:36:47.064Z,62.54
2023-05-12T20:39:15.221Z,63.02
2023-05-12T20:41:43.445Z,62.91
2023-05-12T20:44:10.997Z,62.85
2023-05-12T20:46:39.593Z,62.51
2023-05-12T20:49:07.296Z,65.70
2023-05-12T20:51:34.718Z,65.48
2023-05-12T20:54:02.010Z,66.36
2023-05-12T20:56:28.932Z,68.76
2023-05-12T20:58:57.675Z,69.82
2023-05-12T21:01:24.708Z,70.77
2023-05-12T21:03:51.892Z,71.16
2023-05-12T21:06:18.750Z,71.37
2023-05-12T21:08:46.852Z,72.73
2023-05-12T21:11:16.180Z,74.20
2023-05-12T21:13:49.978Z,75.17
2023-05-12T21:16:16.936Z,74.75
2023-05-12T21:18:44.225Z,75.22
2023-05-12T21:21:11.384Z,76.53
2023-05-12T21:23:38.547Z,77.63
2023-05-12T21:26:05.628Z,78.67
2023-05-12T21:28:32.879Z,79.96
2023-05-12T21:30:59.686Z,80.17
2023-05-12T21:33:26.874Z,81.15
2023-05-12T21:35:53.976Z,83.31
2023-05-12T21:38:21.176Z,83.84
2023-05-12T21:40:56.369Z,84.43
2023-05-12T21:43:23.666Z,86.12
2023-05-12T21:45:50.559Z,87.46
2023-05-12T21:48:17.930Z,87.92
2023-05-12T21:50:44.852Z,89.15
2023-05-12T21:53:12.061Z,89.45
2023-05-12T21:55:40.678Z,91.24
2023-05-12T21:58:07.764Z,92.37
2023-05-12T22:00:34.603Z,93.28
2023-05-12T22:03:01.819Z,94.95
2023-05-12T22:05:28.733Z,95.41
2023-05-12T22:07:56.122Z,96.15
2023-05-12T22:13:12.778Z,94.63
2023-05-12T22:15:39.695Z,94.53
2023-05-12T22:18:06.921Z,94.00
2023-05-12T22:20:33.760Z,94.32
2023-05-12T22:23:00.946Z,95.97
2023-05-12T22:25:27.770Z,99.71
2023-05-12T22:27:54.948Z,100.00
2023-05-12T22:30:22.034Z,100.00
2023-05-12T22:32:49.446Z,100.00
2023-05-12T22:35:16.450Z,100.00
2023-05-12T22:37:43.672Z,100.00
2023-05-12T22:40:10.705Z,100.00
2023-05-12T22:42:37.921Z,100.00
2023-05-12T22:45:05.253Z,100.00
2023-05-12T22:47:32.519Z,100.00
2023-05-12T22:50:00.072Z,100.00
2023-05-12T22:52:27.879Z,100.00
2023-05-12T22:54:55.329Z,100.00
2023-05-12T22:57:23.008Z,100.00
2023-05-12T22:59:49.892Z,100.00
2023-05-12T23:02:17.007Z,100.00
2023-05-12T23:04:44.094Z,100.00
2023-05-12T23:07:11.573Z,100.00
2023-05-12T23:09:38.407Z,100.00
2023-05-12T23:12:05.777Z,100.00
2023-05-12T23:14:32.639Z,100.00
2023-05-12T23:17:00.006Z,100.00
2023-05-12T23:19:26.900Z,100.00
2023-05-12T23:21:54.133Z,100.00
2023-05-12T23:24:21.967Z,100.00
2023-05-12T23:26:50.303Z,100.00
2023-05-12T23:29:17.247Z,100.00
2023-05-12T23:31:44.426Z,100.00
2023-05-12T23:34:11.295Z,100.00
2023-05-12T23:36:38.500Z,100.00
2023-05-12T23:39:05.564Z,100.00
2023-05-12T23:41:34.045Z,100.00
2023-05-12T23:44:03.286Z,100.00
2023-05-12T23:46:30.640Z,100.00
2023-05-12T23:48:57.567Z,100.00
2023-05-12T23:51:24.757Z,100.00
2023-05-12T23:53:51.772Z,100.00
2023-05-12T23:56:18.877Z,100.00
2023-05-12T23:58:47.056Z,100.00
